sensor_id;sensor_type;location;lat;lon;timestamp;temperature;humidity
13344;DHT22;6741;48.964;9.406;2022-08-19T00:02:23;20.30;38.00
13344;DHT22;6741;48.964;9.406;2022-08-19T00:04:50;20.30;40.50
13344;DHT22;6741;48.964;9.406;2022-08-19T00:07:18;20.20;40.30
13344;DHT22;6741;48.964;9.406;2022-08-19T00:09:45;20.20;36.00
13344;DHT22;6741;48.964;9.406;2022-08-19T00:12:13;20.30;34.90
13344;DHT22;6741;48.964;9.406;2022-08-19T00:14:41;20.30;30.10
13344;DHT22;6741;48.964;9.406;2022-08-19T00:17:08;20.20;32.40
13344;DHT22;6741;48.964;9.406;2022-08-19T00:19:37;20.20;37.80
13344;DHT22;6741;48.964;9.406;2022-08-19T00:22:05;20.20;33.90
13344;DHT22;6741;48.964;9.406;2022-08-19T00:24:31;20.20;38.00
13344;DHT22;6741;48.964;9.406;2022-08-19T00:26:58;20.20;38.30
13344;DHT22;6741;48.964;9.406;2022-08-19T00:29:28;20.20;39.60
13344;DHT22;6741;48.964;9.406;2022-08-19T00:31:56;20.20;36.30
13344;DHT22;6741;48.964;9.406;2022-08-19T00:34:24;20.20;37.50
13344;DHT22;6741;48.964;9.406;2022-08-19T00:36:53;20.10;41.30
13344;DHT22;6741;48.964;9.406;2022-08-19T00:39:20;20.10;39.70
13344;DHT22;6741;48.964;9.406;2022-08-19T00:41:48;20.10;43.10
13344;DHT22;6741;48.964;9.406;2022-08-19T00:44:17;20.10;45.00
13344;DHT22;6741;48.964;9.406;2022-08-19T00:46:48;20.10;43.40
13344;DHT22;6741;48.964;9.406;2022-08-19T00:49:19;20.10;44.30
13344;DHT22;6741;48.964;9.406;2022-08-19T00:51:50;20.10;45.20
13344;DHT22;6741;48.964;9.406;2022-08-19T00:54:18;20.10;52.50
13344;DHT22;6741;48.964;9.406;2022-08-19T00:56:47;20.10;53.90
13344;DHT22;6741;48.964;9.406;2022-08-19T00:59:15;20.00;56.50
13344;DHT22;6741;48.964;9.406;2022-08-19T01:01:44;20.00;57.20
13344;DHT22;6741;48.964;9.406;2022-08-19T01:04:12;20.00;59.50
13344;DHT22;6741;48.964;9.406;2022-08-19T01:06:40;20.00;55.60
13344;DHT22;6741;48.964;9.406;2022-08-19T01:09:08;20.00;60.10
13344;DHT22;6741;48.964;9.406;2022-08-19T01:11:38;20.00;60.50
13344;DHT22;6741;48.964;9.406;2022-08-19T01:14:07;20.00;61.60
13344;DHT22;6741;48.964;9.406;2022-08-19T01:16:35;20.00;60.70
13344;DHT22;6741;48.964;9.406;2022-08-19T01:19:06;20.00;63.30
13344;DHT22;6741;48.964;9.406;2022-08-19T01:21:42;20.00;64.50
13344;DHT22;6741;48.964;9.406;2022-08-19T01:24:15;20.00;66.20
13344;DHT22;6741;48.964;9.406;2022-08-19T01:26:44;20.00;69.20
13344;DHT22;6741;48.964;9.406;2022-08-19T01:29:11;20.00;70.30
13344;DHT22;6741;48.964;9.406;2022-08-19T01:31:39;20.00;70.20
13344;DHT22;6741;48.964;9.406;2022-08-19T01:34:07;20.00;74.70
13344;DHT22;6741;48.964;9.406;2022-08-19T01:36:44;19.90;75.90
13344;DHT22;6741;48.964;9.406;2022-08-19T01:39:16;19.90;77.20
13344;DHT22;6741;48.964;9.406;2022-08-19T01:41:43;19.90;81.80
13344;DHT22;6741;48.964;9.406;2022-08-19T01:44:10;19.90;81.70
13344;DHT22;6741;48.964;9.406;2022-08-19T01:46:38;19.90;81.90
13344;DHT22;6741;48.964;9.406;2022-08-19T01:49:05;19.90;86.70
13344;DHT22;6741;48.964;9.406;2022-08-19T01:51:33;19.90;88.10
13344;DHT22;6741;48.964;9.406;2022-08-19T01:54:01;19.80;89.90
13344;DHT22;6741;48.964;9.406;2022-08-19T01:56:29;19.80;88.70
13344;DHT22;6741;48.964;9.406;2022-08-19T01:58:59;19.80;91.00
13344;DHT22;6741;48.964;9.406;2022-08-19T02:01:26;19.80;91.00
13344;DHT22;6741;48.964;9.406;2022-08-19T02:03:57;19.80;91.10
13344;DHT22;6741;48.964;9.406;2022-08-19T02:06:24;19.80;93.10
13344;DHT22;6741;48.964;9.406;2022-08-19T02:08:51;19.80;91.60
13344;DHT22;6741;48.964;9.406;2022-08-19T02:11:20;19.80;94.30
13344;DHT22;6741;48.964;9.406;2022-08-19T02:13:48;19.70;94.70
13344;DHT22;6741;48.964;9.406;2022-08-19T02:16:17;19.70;96.90
13344;DHT22;6741;48.964;9.406;2022-08-19T02:18:44;19.70;96.30
13344;DHT22;6741;48.964;9.406;2022-08-19T02:21:12;19.70;99.80
13344;DHT22;6741;48.964;9.406;2022-08-19T02:23:41;19.70;99.90
13344;DHT22;6741;48.964;9.406;2022-08-19T02:26:09;19.60;99.90
13344;DHT22;6741;48.964;9.406;2022-08-19T02:28:36;19.60;99.90
13344;DHT22;6741;48.964;9.406;2022-08-19T02:31:09;19.60;99.90
13344;DHT22;6741;48.964;9.406;2022-08-19T02:33:36;19.60;99.90
13344;DHT22;6741;48.964;9.406;2022-08-19T02:36:04;19.60;99.90
13344;DHT22;6741;48.964;9.406;2022-08-19T02:38:31;19.60;99.90
13344;DHT22;6741;48.964;9.406;2022-08-19T02:40:59;19.60;99.90
13344;DHT22;6741;48.964;9.406;2022-08-19T02:43:28;19.60;99.90
13344;DHT22;6741;48.964;9.406;2022-08-19T02:45:56;19.60;99.90
13344;DHT22;6741;48.964;9.406;2022-08-19T02:48:25;19.60;99.90
13344;DHT22;6741;48.964;9.406;2022-08-19T02:50:53;19.50;99.90
13344;DHT22;6741;48.964;9.406;2022-08-19T02:53:21;19.50;99.90
13344;DHT22;6741;48.964;9.406;2022-08-19T02:55:49;19.50;99.90
13344;DHT22;6741;48.964;9.406;2022-08-19T02:58:17;19.50;99.90
13344;DHT22;6741;48.964;9.406;2022-08-19T03:00:46;19.50;99.90
13344;DHT22;6741;48.964;9.406;2022-08-19T03:03:15;19.50;99.90
13344;DHT22;6741;48.964;9.406;2022-08-19T03:05:43;19.50;99.90
13344;DHT22;6741;48.964;9.406;2022-08-19T03:08:12;19.50;99.90
13344;DHT22;6741;48.964;9.406;2022-08-19T03:10:44;19.50;99.90
13344;DHT22;6741;48.964;9.406;2022-08-19T03:13:13;19.50;99.90
13344;DHT22;6741;48.964;9.406;2022-08-19T03:15:41;19.50;99.90
13344;DHT22;6741;48.964;9.406;2022-08-19T03:18:08;19.40;99.90
13344;DHT22;6741;48.964;9.406;2022-08-19T03:20:42;19.40;99.90
13344;DHT22;6741;48.964;9.406;2022-08-19T03:23:11;19.40;99.90
13344;DHT22;6741;48.964;9.406;2022-08-19T03:25:40;19.40;99.90
13344;DHT22;6741;48.964;9.406;2022-08-19T03:28:09;19.30;99.90
13344;DHT22;6741;48.964;9.406;2022-08-19T03:30:37;19.40;99.90
13344;DHT22;6741;48.964;9.406;2022-08-19T03:33:06;19.30;99.90
13344;DHT22;6741;48.964;9.406;2022-08-19T03:35:33;19.30;99.90
13344;DHT22;6741;48.964;9.406;2022-08-19T03:38:03;19.30;99.90
13344;DHT22;6741;48.964;9.406;2022-08-19T03:40:31;19.20;99.90
13344;DHT22;6741;48.964;9.406;2022-08-19T03:42:58;19.20;99.90
13344;DHT22;6741;48.964;9.406;2022-08-19T03:45:25;19.20;99.90
13344;DHT22;6741;48.964;9.406;2022-08-19T03:47:53;19.20;99.90
13344;DHT22;6741;48.964;9.406;2022-08-19T03:50:20;19.20;99.90
13344;DHT22;6741;48.964;9.406;2022-08-19T03:52:48;19.20;99.90
13344;DHT22;6741;48.964;9.406;2022-08-19T03:55:18;19.20;99.90
13344;DHT22;6741;48.964;9.406;2022-08-19T03:57:45;19.20;99.90
13344;DHT22;6741;48.964;9.406;2022-08-19T04:00:15;19.20;99.90
13344;DHT22;6741;48.964;9.406;2022-08-19T04:02:42;19.20;99.90
13344;DHT22;6741;48.964;9.406;2022-08-19T04:05:09;19.20;99.90
13344;DHT22;6741;48.964;9.406;2022-08-19T04:07:36;19.20;99.90
13344;DHT22;6741;48.964;9.406;2022-08-19T04:10:04;19.20;99.90
13344;DHT22;6741;48.964;9.406;2022-08-19T04:12:32;19.20;99.90
13344;DHT22;6741;48.964;9.406;2022-08-19T04:14:59;19.20;99.90
13344;DHT22;6741;48.964;9.406;2022-08-19T04:17:26;19.10;99.90
13344;DHT22;6741;48.964;9.406;2022-08-19T04:19:53;19.10;99.90
13344;DHT22;6741;48.964;9.406;2022-08-19T04:22:20;19.10;99.90
13344;DHT22;6741;48.964;9.406;2022-08-19T04:24:47;19.10;99.90
13344;DHT22;6741;48.964;9.406;2022-08-19T04:27:13;19.10;99.90
13344;DHT22;6741;48.964;9.406;2022-08-19T04:29:43;19.10;99.90
13344;DHT22;6741;48.964;9.406;2022-08-19T04:32:10;19.10;99.90
13344;DHT22;6741;48.964;9.406;2022-08-19T04:34:37;19.10;99.90
13344;DHT22;6741;48.964;9.406;2022-08-19T04:37:05;19.10;99.90
13344;DHT22;6741;48.964;9.406;2022-08-19T04:39:37;19.10;99.90
13344;DHT22;6741;48.964;9.406;2022-08-19T04:42:22;19.00;99.90
13344;DHT22;6741;48.964;9.406;2022-08-19T04:45:10;19.00;99.90
13344;DHT22;6741;48.964;9.406;2022-08-19T04:47:39;19.00;99.90
13344;DHT22;6741;48.964;9.406;2022-08-19T04:50:07;19.00;99.90
13344;DHT22;6741;48.964;9.406;2022-08-19T04:52:36;19.00;99.90
13344;DHT22;6741;48.964;9.406;2022-08-19T04:55:05;19.00;99.90
13344;DHT22;6741;48.964;9.406;2022-08-19T04:57:32;19.10;99.90
13344;DHT22;6741;48.964;9.406;2022-08-19T04:59:59;19.00;99.90
13344;DHT22;6741;48.964;9.406;2022-08-19T05:02:27;19.10;99.90
13344;DHT22;6741;48.964;9.406;2022-08-19T05:04:56;19.10;99.90
13344;DHT22;6741;48.964;9.406;2022-08-19T05:07:25;19.10;99.90
13344;DHT22;6741;48.964;9.406;2022-08-19T05:09:52;19.10;99.90
13344;DHT22;6741;48.964;9.406;2022-08-19T05:12:19;19.10;99.90
13344;DHT22;6741;48.964;9.406;2022-08-19T05:14:46;19.10;99.90
13344;DHT22;6741;48.964;9.406;2022-08-19T05:17:15;19.10;99.90
13344;DHT22;6741;48.964;9.406;2022-08-19T05:19:43;19.10;99.90
13344;DHT22;6741;48.964;9.406;2022-08-19T05:22:27;19.10;99.90
13344;DHT22;6741;48.964;9.406;2022-08-19T05:25:03;19.10;99.90
13344;DHT22;6741;48.964;9.406;2022-08-19T05:27:30;19.20;99.90
13344;DHT22;6741;48.964;9.406;2022-08-19T05:29:57;19.20;99.90
13344;DHT22;6741;48.964;9.406;2022-08-19T05:32:24;19.20;99.90
13344;DHT22;6741;48.964;9.406;2022-08-19T05:34:53;19.20;99.90
13344;DHT22;6741;48.964;9.406;2022-08-19T05:37:20;19.20;99.90
13344;DHT22;6741;48.964;9.406;2022-08-19T05:39:48;19.30;99.90
13344;DHT22;6741;48.964;9.406;2022-08-19T05:42:15;19.20;99.90
13344;DHT22;6741;48.964;9.406;2022-08-19T05:44:43;19.20;99.90
13344;DHT22;6741;48.964;9.406;2022-08-19T05:47:11;19.20;99.90
13344;DHT22;6741;48.964;9.406;2022-08-19T05:49:38;19.20;99.90
13344;DHT22;6741;48.964;9.406;2022-08-19T05:52:08;19.20;99.90
13344;DHT22;6741;48.964;9.406;2022-08-19T05:54:37;19.20;99.90
13344;DHT22;6741;48.964;9.406;2022-08-19T05:57:06;19.20;99.90
13344;DHT22;6741;48.964;9.406;2022-08-19T05:59:33;19.20;99.90
13344;DHT22;6741;48.964;9.406;2022-08-19T06:02:00;19.20;99.90
13344;DHT22;6741;48.964;9.406;2022-08-19T06:04:27;19.20;99.90
13344;DHT22;6741;48.964;9.406;2022-08-19T06:06:55;19.20;99.90
13344;DHT22;6741;48.964;9.406;2022-08-19T06:09:24;19.20;99.90
13344;DHT22;6741;48.964;9.406;2022-08-19T06:11:53;19.20;99.90
13344;DHT22;6741;48.964;9.406;2022-08-19T06:14:22;19.20;99.90
13344;DHT22;6741;48.964;9.406;2022-08-19T06:16:49;19.20;99.90
13344;DHT22;6741;48.964;9.406;2022-08-19T06:19:19;19.20;99.90
13344;DHT22;6741;48.964;9.406;2022-08-19T06:21:48;19.20;99.90
13344;DHT22;6741;48.964;9.406;2022-08-19T06:24:18;19.20;99.90
13344;DHT22;6741;48.964;9.406;2022-08-19T06:26:48;19.20;99.90
13344;DHT22;6741;48.964;9.406;2022-08-19T06:29:16;19.30;99.90
13344;DHT22;6741;48.964;9.406;2022-08-19T06:31:45;19.30;99.90
13344;DHT22;6741;48.964;9.406;2022-08-19T06:34:15;19.30;99.90
13344;DHT22;6741;48.964;9.406;2022-08-19T06:36:45;19.40;99.90
13344;DHT22;6741;48.964;9.406;2022-08-19T06:39:15;19.40;99.90
13344;DHT22;6741;48.964;9.406;2022-08-19T06:41:46;19.50;99.90
13344;DHT22;6741;48.964;9.406;2022-08-19T06:44:14;19.50;99.90
13344;DHT22;6741;48.964;9.406;2022-08-19T06:46:41;19.50;99.90
13344;DHT22;6741;48.964;9.406;2022-08-19T06:49:08;19.50;99.90
13344;DHT22;6741;48.964;9.406;2022-08-19T06:51:40;19.50;99.90
13344;DHT22;6741;48.964;9.406;2022-08-19T06:54:07;19.50;99.90
13344;DHT22;6741;48.964;9.406;2022-08-19T06:56:34;19.70;99.90
13344;DHT22;6741;48.964;9.406;2022-08-19T06:59:04;19.80;99.90
13344;DHT22;6741;48.964;9.406;2022-08-19T07:01:35;19.90;99.90
13344;DHT22;6741;48.964;9.406;2022-08-19T07:04:03;19.90;99.90
13344;DHT22;6741;48.964;9.406;2022-08-19T07:06:30;20.00;99.90
13344;DHT22;6741;48.964;9.406;2022-08-19T07:08:57;20.10;99.90
13344;DHT22;6741;48.964;9.406;2022-08-19T07:11:24;20.20;99.90
13344;DHT22;6741;48.964;9.406;2022-08-19T07:13:51;20.30;99.90
13344;DHT22;6741;48.964;9.406;2022-08-19T07:16:20;20.40;99.90
13344;DHT22;6741;48.964;9.406;2022-08-19T07:18:47;20.30;99.90
13344;DHT22;6741;48.964;9.406;2022-08-19T07:21:16;20.30;99.90
13344;DHT22;6741;48.964;9.406;2022-08-19T07:23:44;20.30;99.90
13344;DHT22;6741;48.964;9.406;2022-08-19T07:26:16;20.20;99.90
13344;DHT22;6741;48.964;9.406;2022-08-19T07:28:44;20.30;99.90
13344;DHT22;6741;48.964;9.406;2022-08-19T07:31:14;20.20;99.90
13344;DHT22;6741;48.964;9.406;2022-08-19T07:33:42;20.20;99.90
13344;DHT22;6741;48.964;9.406;2022-08-19T07:36:11;20.20;99.90
13344;DHT22;6741;48.964;9.406;2022-08-19T07:38:40;20.20;99.90
13344;DHT22;6741;48.964;9.406;2022-08-19T07:41:09;20.20;99.90
13344;DHT22;6741;48.964;9.406;2022-08-19T07:43:37;20.10;99.90
13344;DHT22;6741;48.964;9.406;2022-08-19T07:46:05;20.10;99.90
13344;DHT22;6741;48.964;9.406;2022-08-19T07:48:32;20.10;99.90
13344;DHT22;6741;48.964;9.406;2022-08-19T07:51:04;20.10;99.90
13344;DHT22;6741;48.964;9.406;2022-08-19T07:53:32;20.10;99.90
13344;DHT22;6741;48.964;9.406;2022-08-19T07:55:59;20.10;99.90
13344;DHT22;6741;48.964;9.406;2022-08-19T07:58:30;20.10;99.90
13344;DHT22;6741;48.964;9.406;2022-08-19T08:00:57;20.10;99.90
13344;DHT22;6741;48.964;9.406;2022-08-19T08:03:25;20.10;99.90
13344;DHT22;6741;48.964;9.406;2022-08-19T08:06:14;20.10;99.90
13344;DHT22;6741;48.964;9.406;2022-08-19T08:09:01;20.10;99.90
13344;DHT22;6741;48.964;9.406;2022-08-19T08:11:37;20.20;99.90
13344;DHT22;6741;48.964;9.406;2022-08-19T08:14:05;20.20;99.90
13344;DHT22;6741;48.964;9.406;2022-08-19T08:16:34;20.20;99.90
13344;DHT22;6741;48.964;9.406;2022-08-19T08:19:03;20.20;99.90
13344;DHT22;6741;48.964;9.406;2022-08-19T08:21:32;20.20;99.90
13344;DHT22;6741;48.964;9.406;2022-08-19T08:23:59;20.10;99.90
13344;DHT22;6741;48.964;9.406;2022-08-19T08:26:26;20.10;99.90
13344;DHT22;6741;48.964;9.406;2022-08-19T08:28:53;20.10;99.90
13344;DHT22;6741;48.964;9.406;2022-08-19T08:31:20;20.10;99.90
13344;DHT22;6741;48.964;9.406;2022-08-19T08:33:49;20.20;99.90
13344;DHT22;6741;48.964;9.406;2022-08-19T08:36:16;20.10;99.90
13344;DHT22;6741;48.964;9.406;2022-08-19T08:38:44;20.10;99.90
13344;DHT22;6741;48.964;9.406;2022-08-19T08:41:19;20.10;99.90
13344;DHT22;6741;48.964;9.406;2022-08-19T08:43:49;20.10;99.90
13344;DHT22;6741;48.964;9.406;2022-08-19T08:46:22;20.00;99.90
13344;DHT22;6741;48.964;9.406;2022-08-19T08:48:56;20.10;99.90
13344;DHT22;6741;48.964;9.406;2022-08-19T08:51:27;20.00;99.90
13344;DHT22;6741;48.964;9.406;2022-08-19T08:53:57;20.00;99.90
13344;DHT22;6741;48.964;9.406;2022-08-19T08:56:25;20.00;99.90
13344;DHT22;6741;48.964;9.406;2022-08-19T08:58:57;20.00;99.90
13344;DHT22;6741;48.964;9.406;2022-08-19T09:01:25;20.00;99.90
13344;DHT22;6741;48.964;9.406;2022-08-19T09:03:53;20.10;99.90
13344;DHT22;6741;48.964;9.406;2022-08-19T09:06:25;20.10;99.90
13344;DHT22;6741;48.964;9.406;2022-08-19T09:09:04;20.10;99.90
13344;DHT22;6741;48.964;9.406;2022-08-19T09:11:44;20.10;99.90
13344;DHT22;6741;48.964;9.406;2022-08-19T09:14:20;20.20;99.90
13344;DHT22;6741;48.964;9.406;2022-08-19T09:16:50;20.30;99.90
13344;DHT22;6741;48.964;9.406;2022-08-19T09:19:17;20.40;99.90
13344;DHT22;6741;48.964;9.406;2022-08-19T09:21:44;20.40;99.90
13344;DHT22;6741;48.964;9.406;2022-08-19T09:24:13;20.50;99.90
13344;DHT22;6741;48.964;9.406;2022-08-19T09:26:40;20.40;99.90
13344;DHT22;6741;48.964;9.406;2022-08-19T09:29:09;20.30;99.90
13344;DHT22;6741;48.964;9.406;2022-08-19T09:31:36;20.30;99.90
13344;DHT22;6741;48.964;9.406;2022-08-19T09:34:03;20.30;99.90
13344;DHT22;6741;48.964;9.406;2022-08-19T09:36:31;20.30;99.90
13344;DHT22;6741;48.964;9.406;2022-08-19T09:39:02;20.30;99.90
13344;DHT22;6741;48.964;9.406;2022-08-19T09:41:30;20.40;99.90
13344;DHT22;6741;48.964;9.406;2022-08-19T09:43:58;20.50;99.90
13344;DHT22;6741;48.964;9.406;2022-08-19T09:46:27;20.60;99.90
13344;DHT22;6741;48.964;9.406;2022-08-19T09:49:00;20.70;99.90
13344;DHT22;6741;48.964;9.406;2022-08-19T09:51:27;20.80;99.90
13344;DHT22;6741;48.964;9.406;2022-08-19T09:53:58;20.80;99.90
13344;DHT22;6741;48.964;9.406;2022-08-19T09:56:25;20.80;99.90
13344;DHT22;6741;48.964;9.406;2022-08-19T09:58:54;20.80;99.90
13344;DHT22;6741;48.964;9.406;2022-08-19T10:01:23;20.70;99.90
13344;DHT22;6741;48.964;9.406;2022-08-19T10:03:52;20.70;99.90
13344;DHT22;6741;48.964;9.406;2022-08-19T10:06:20;20.70;99.90
13344;DHT22;6741;48.964;9.406;2022-08-19T10:08:47;20.70;99.90
13344;DHT22;6741;48.964;9.406;2022-08-19T10:11:14;20.80;99.90
13344;DHT22;6741;48.964;9.406;2022-08-19T10:13:43;20.80;99.90
13344;DHT22;6741;48.964;9.406;2022-08-19T10:16:13;20.60;99.90
13344;DHT22;6741;48.964;9.406;2022-08-19T10:18:41;20.60;99.90
13344;DHT22;6741;48.964;9.406;2022-08-19T10:21:12;20.70;99.90
13344;DHT22;6741;48.964;9.406;2022-08-19T10:23:41;20.80;99.90
13344;DHT22;6741;48.964;9.406;2022-08-19T10:26:11;20.90;99.90
13344;DHT22;6741;48.964;9.406;2022-08-19T10:28:39;20.90;99.90
13344;DHT22;6741;48.964;9.406;2022-08-19T10:31:07;20.90;99.90
13344;DHT22;6741;48.964;9.406;2022-08-19T10:33:36;20.90;99.90
13344;DHT22;6741;48.964;9.406;2022-08-19T10:36:06;21.00;99.90
13344;DHT22;6741;48.964;9.406;2022-08-19T10:38:33;21.00;99.90
13344;DHT22;6741;48.964;9.406;2022-08-19T10:41:07;21.00;99.90
13344;DHT22;6741;48.964;9.406;2022-08-19T10:43:34;21.10;99.90
13344;DHT22;6741;48.964;9.406;2022-08-19T10:46:04;21.20;99.90
13344;DHT22;6741;48.964;9.406;2022-08-19T10:48:31;21.20;99.90
13344;DHT22;6741;48.964;9.406;2022-08-19T10:50:59;21.30;99.90
13344;DHT22;6741;48.964;9.406;2022-08-19T10:53:44;21.30;99.90
13344;DHT22;6741;48.964;9.406;2022-08-19T10:56:12;21.20;99.90
13344;DHT22;6741;48.964;9.406;2022-08-19T10:58:57;21.20;99.90
13344;DHT22;6741;48.964;9.406;2022-08-19T11:01:24;21.30;99.90
13344;DHT22;6741;48.964;9.406;2022-08-19T11:03:51;21.20;99.90
13344;DHT22;6741;48.964;9.406;2022-08-19T11:06:25;21.10;99.90
13344;DHT22;6741;48.964;9.406;2022-08-19T11:08:53;21.10;99.90
13344;DHT22;6741;48.964;9.406;2022-08-19T11:11:21;21.00;99.90
13344;DHT22;6741;48.964;9.406;2022-08-19T11:13:49;21.10;99.90
13344;DHT22;6741;48.964;9.406;2022-08-19T11:16:17;21.10;99.90
13344;DHT22;6741;48.964;9.406;2022-08-19T11:18:47;21.10;99.90
13344;DHT22;6741;48.964;9.406;2022-08-19T11:21:17;21.20;99.90
13344;DHT22;6741;48.964;9.406;2022-08-19T11:23:48;21.20;99.90
13344;DHT22;6741;48.964;9.406;2022-08-19T11:26:16;21.20;99.90
13344;DHT22;6741;48.964;9.406;2022-08-19T11:28:44;21.20;99.90
13344;DHT22;6741;48.964;9.406;2022-08-19T11:31:13;21.40;99.90
13344;DHT22;6741;48.964;9.406;2022-08-19T11:33:41;21.40;99.90
13344;DHT22;6741;48.964;9.406;2022-08-19T11:36:08;21.60;99.90
13344;DHT22;6741;48.964;9.406;2022-08-19T11:38:36;21.80;99.90
13344;DHT22;6741;48.964;9.406;2022-08-19T11:41:06;21.90;99.90
13344;DHT22;6741;48.964;9.406;2022-08-19T11:43:34;22.00;99.90
13344;DHT22;6741;48.964;9.406;2022-08-19T11:46:04;22.00;99.90
13344;DHT22;6741;48.964;9.406;2022-08-19T11:48:32;22.00;99.90
13344;DHT22;6741;48.964;9.406;2022-08-19T11:50:59;22.10;49.30
13344;DHT22;6741;48.964;9.406;2022-08-19T11:53:31;22.10;81.00
13344;DHT22;6741;48.964;9.406;2022-08-19T11:55:58;22.10;89.40
13344;DHT22;6741;48.964;9.406;2022-08-19T11:58:26;22.20;91.00
13344;DHT22;6741;48.964;9.406;2022-08-19T12:00:54;22.20;98.50
13344;DHT22;6741;48.964;9.406;2022-08-19T12:03:21;22.20;83.80
13344;DHT22;6741;48.964;9.406;2022-08-19T12:05:49;22.30;75.80
13344;DHT22;6741;48.964;9.406;2022-08-19T12:08:17;22.30;71.90
13344;DHT22;6741;48.964;9.406;2022-08-19T12:10:44;22.40;68.50
13344;DHT22;6741;48.964;9.406;2022-08-19T12:13:13;22.60;21.30
13344;DHT22;6741;48.964;9.406;2022-08-19T12:15:46;22.60;26.60
13344;DHT22;6741;48.964;9.406;2022-08-19T12:18:13;22.70;10.70
13344;DHT22;6741;48.964;9.406;2022-08-19T12:20:41;22.90;37.40
13344;DHT22;6741;48.964;9.406;2022-08-19T12:23:10;23.00;22.10
13344;DHT22;6741;48.964;9.406;2022-08-19T12:25:37;23.10;43.40
13344;DHT22;6741;48.964;9.406;2022-08-19T12:28:04;23.00;99.90
13344;DHT22;6741;48.964;9.406;2022-08-19T12:30:31;22.80;99.90
13344;DHT22;6741;48.964;9.406;2022-08-19T12:32:59;22.60;99.90
13344;DHT22;6741;48.964;9.406;2022-08-19T12:35:26;22.40;99.90
13344;DHT22;6741;48.964;9.406;2022-08-19T12:37:54;22.10;99.90
13344;DHT22;6741;48.964;9.406;2022-08-19T12:40:21;22.10;99.90
13344;DHT22;6741;48.964;9.406;2022-08-19T12:42:48;22.20;99.90
13344;DHT22;6741;48.964;9.406;2022-08-19T12:45:17;22.00;99.90
13344;DHT22;6741;48.964;9.406;2022-08-19T12:47:44;21.80;99.90
13344;DHT22;6741;48.964;9.406;2022-08-19T12:50:13;21.70;99.90
13344;DHT22;6741;48.964;9.406;2022-08-19T12:52:40;21.80;99.90
13344;DHT22;6741;48.964;9.406;2022-08-19T12:55:08;21.80;99.90
13344;DHT22;6741;48.964;9.406;2022-08-19T12:57:36;21.80;99.90
13344;DHT22;6741;48.964;9.406;2022-08-19T13:00:06;21.70;99.90
13344;DHT22;6741;48.964;9.406;2022-08-19T13:02:36;21.80;99.90
13344;DHT22;6741;48.964;9.406;2022-08-19T13:05:03;21.60;99.90
13344;DHT22;6741;48.964;9.406;2022-08-19T13:07:33;21.70;99.90
13344;DHT22;6741;48.964;9.406;2022-08-19T13:10:00;21.70;99.90
13344;DHT22;6741;48.964;9.406;2022-08-19T13:12:27;21.70;99.90
13344;DHT22;6741;48.964;9.406;2022-08-19T13:14:55;21.60;99.90
13344;DHT22;6741;48.964;9.406;2022-08-19T13:17:22;21.80;99.90
13344;DHT22;6741;48.964;9.406;2022-08-19T13:19:49;21.80;99.90
13344;DHT22;6741;48.964;9.406;2022-08-19T13:22:16;21.90;99.90
13344;DHT22;6741;48.964;9.406;2022-08-19T13:24:45;22.00;99.90
13344;DHT22;6741;48.964;9.406;2022-08-19T13:27:12;22.00;99.90
13344;DHT22;6741;48.964;9.406;2022-08-19T13:29:40;22.10;99.90
13344;DHT22;6741;48.964;9.406;2022-08-19T13:32:24;22.00;99.90
13344;DHT22;6741;48.964;9.406;2022-08-19T13:35:08;22.00;99.90
13344;DHT22;6741;48.964;9.406;2022-08-19T13:37:34;22.00;99.90
13344;DHT22;6741;48.964;9.406;2022-08-19T13:40:16;22.00;99.90
13344;DHT22;6741;48.964;9.406;2022-08-19T13:42:45;22.00;99.90
13344;DHT22;6741;48.964;9.406;2022-08-19T13:45:13;22.00;99.90
13344;DHT22;6741;48.964;9.406;2022-08-19T13:47:41;22.10;99.90
13344;DHT22;6741;48.964;9.406;2022-08-19T13:50:10;22.20;99.90
13344;DHT22;6741;48.964;9.406;2022-08-19T13:52:38;22.40;99.90
13344;DHT22;6741;48.964;9.406;2022-08-19T13:55:05;22.70;99.90
13344;DHT22;6741;48.964;9.406;2022-08-19T13:57:34;23.00;99.90
13344;DHT22;6741;48.964;9.406;2022-08-19T14:00:03;23.10;99.90
13344;DHT22;6741;48.964;9.406;2022-08-19T14:02:30;23.10;99.90
13344;DHT22;6741;48.964;9.406;2022-08-19T14:04:58;23.20;99.90
13344;DHT22;6741;48.964;9.406;2022-08-19T14:07:25;23.00;99.90
13344;DHT22;6741;48.964;9.406;2022-08-19T14:09:52;22.90;99.90
13344;DHT22;6741;48.964;9.406;2022-08-19T14:12:19;22.80;99.90
13344;DHT22;6741;48.964;9.406;2022-08-19T14:14:48;22.60;99.90
13344;DHT22;6741;48.964;9.406;2022-08-19T14:17:16;22.50;99.90
13344;DHT22;6741;48.964;9.406;2022-08-19T14:19:43;22.40;99.90
13344;DHT22;6741;48.964;9.406;2022-08-19T14:22:10;22.20;99.90
13344;DHT22;6741;48.964;9.406;2022-08-19T14:24:37;22.00;99.90
13344;DHT22;6741;48.964;9.406;2022-08-19T14:27:05;21.70;99.90
13344;DHT22;6741;48.964;9.406;2022-08-19T14:29:32;21.60;99.90
13344;DHT22;6741;48.964;9.406;2022-08-19T14:32:01;21.50;99.90
13344;DHT22;6741;48.964;9.406;2022-08-19T14:34:27;21.40;99.90
13344;DHT22;6741;48.964;9.406;2022-08-19T14:36:57;21.30;99.90
13344;DHT22;6741;48.964;9.406;2022-08-19T14:39:24;21.20;99.90
13344;DHT22;6741;48.964;9.406;2022-08-19T14:41:51;21.20;99.90
13344;DHT22;6741;48.964;9.406;2022-08-19T14:44:18;21.20;99.90
13344;DHT22;6741;48.964;9.406;2022-08-19T14:46:45;21.20;99.90
13344;DHT22;6741;48.964;9.406;2022-08-19T14:49:13;21.10;99.90
13344;DHT22;6741;48.964;9.406;2022-08-19T14:51:40;21.20;99.90
13344;DHT22;6741;48.964;9.406;2022-08-19T14:54:07;21.20;99.90
13344;DHT22;6741;48.964;9.406;2022-08-19T14:56:34;21.20;99.90
13344;DHT22;6741;48.964;9.406;2022-08-19T14:59:01;21.20;99.90
13344;DHT22;6741;48.964;9.406;2022-08-19T15:01:29;21.10;99.90
13344;DHT22;6741;48.964;9.406;2022-08-19T15:03:55;21.10;99.90
13344;DHT22;6741;48.964;9.406;2022-08-19T15:06:24;21.00;99.90
13344;DHT22;6741;48.964;9.406;2022-08-19T15:08:52;20.90;99.90
13344;DHT22;6741;48.964;9.406;2022-08-19T15:11:21;20.90;99.90
13344;DHT22;6741;48.964;9.406;2022-08-19T15:13:49;20.90;99.90
13344;DHT22;6741;48.964;9.406;2022-08-19T15:16:17;20.80;99.90
13344;DHT22;6741;48.964;9.406;2022-08-19T15:18:45;20.70;99.90
13344;DHT22;6741;48.964;9.406;2022-08-19T15:21:13;20.60;99.90
13344;DHT22;6741;48.964;9.406;2022-08-19T15:23:45;20.60;99.90
13344;DHT22;6741;48.964;9.406;2022-08-19T15:26:13;20.60;99.90
13344;DHT22;6741;48.964;9.406;2022-08-19T15:28:40;20.50;99.90
13344;DHT22;6741;48.964;9.406;2022-08-19T15:31:07;20.40;99.90
13344;DHT22;6741;48.964;9.406;2022-08-19T15:33:36;20.40;99.90
13344;DHT22;6741;48.964;9.406;2022-08-19T15:36:04;20.40;99.90
13344;DHT22;6741;48.964;9.406;2022-08-19T15:38:32;20.30;99.90
13344;DHT22;6741;48.964;9.406;2022-08-19T15:41:02;20.20;99.90
13344;DHT22;6741;48.964;9.406;2022-08-19T15:43:43;20.20;99.90
13344;DHT22;6741;48.964;9.406;2022-08-19T15:46:10;20.10;99.90
13344;DHT22;6741;48.964;9.406;2022-08-19T15:48:37;20.10;99.90
13344;DHT22;6741;48.964;9.406;2022-08-19T15:51:04;20.10;99.90
13344;DHT22;6741;48.964;9.406;2022-08-19T15:53:31;20.00;99.90
13344;DHT22;6741;48.964;9.406;2022-08-19T15:55:59;20.00;99.90